createdAt,value
2023-03-13T00:01:13.161Z,11.00
2023-03-13T00:03:41.982Z,10.83
2023-03-13T00:06:10.573Z,10.70
2023-03-13T00:08:40.452Z,10.73
2023-03-13T00:11:10.782Z,10.70
2023-03-13T00:13:39.188Z,10.30
2023-03-13T00:16:09.156Z,9.90
2023-03-13T00:18:37.434Z,9.97
2023-03-13T00:21:07.196Z,10.03
2023-03-13T00:23:37.015Z,9.87
2023-03-13T00:26:08.562Z,9.80
2023-03-13T00:28:38.125Z,9.00
2023-03-13T00:31:07.769Z,8.83
2023-03-13T00:33:36.338Z,8.67
2023-03-13T00:36:06.956Z,8.90
2023-03-13T00:38:35.509Z,9.27
2023-03-13T00:41:05.079Z,8.40
2023-03-13T00:43:36.832Z,9.27
2023-03-13T00:46:05.184Z,8.27
2023-03-13T00:48:34.138Z,8.33
2023-03-13T00:51:02.614Z,8.63
2023-03-13T00:53:30.917Z,9.00
2023-03-13T00:56:01.414Z,8.60
2023-03-13T00:58:31.568Z,8.67
2023-03-13T01:01:08.771Z,7.27
2023-03-13T01:03:38.184Z,8.10
2023-03-13T01:06:08.124Z,8.20
2023-03-13T01:08:36.476Z,8.10
2023-03-13T01:11:07.041Z,7.80
2023-03-13T01:13:35.725Z,8.23
2023-03-13T01:16:06.811Z,7.33
2023-03-13T01:18:35.442Z,7.53
2023-03-13T01:21:03.843Z,7.40
2023-03-13T01:23:32.591Z,7.10
2023-03-13T01:26:00.897Z,7.83
2023-03-13T01:28:29.037Z,7.10
2023-03-13T01:30:57.016Z,8.00
2023-03-13T01:33:26.675Z,7.47
2023-03-13T01:36:01.788Z,7.23
2023-03-13T01:38:29.825Z,7.33
2023-03-13T01:40:57.793Z,7.13
2023-03-13T01:43:27.829Z,7.73
2023-03-13T01:46:05.450Z,7.50
2023-03-13T01:48:50.301Z,7.67
2023-03-13T01:51:24.804Z,7.67
2023-03-13T01:54:01.359Z,7.00
2023-03-13T01:56:35.583Z,7.50
2023-03-13T01:59:05.389Z,8.13
2023-03-13T02:01:34.840Z,8.07
2023-03-13T02:04:07.681Z,7.20
2023-03-13T02:06:39.799Z,8.23
2023-03-13T02:09:11.526Z,7.70
2023-03-13T02:11:48.712Z,7.50
2023-03-13T02:14:22.239Z,7.87
2023-03-13T02:16:51.960Z,7.60
2023-03-13T02:19:29.496Z,7.37
2023-03-13T02:22:06.352Z,7.80
2023-03-13T02:24:41.796Z,7.53
2023-03-13T02:27:11.206Z,7.20
2023-03-13T02:29:42.551Z,7.70
2023-03-13T02:32:11.975Z,7.70
2023-03-13T02:34:42.423Z,7.00
2023-03-13T02:37:12.928Z,7.57
2023-03-13T02:39:45.862Z,8.37
2023-03-13T02:42:16.662Z,7.30
2023-03-13T02:44:47.144Z,7.57
2023-03-13T02:47:20.278Z,7.43
2023-03-13T02:49:48.630Z,7.90
2023-03-13T02:52:21.279Z,7.07
2023-03-13T02:54:51.840Z,8.10
2023-03-13T02:57:23.356Z,7.67
2023-03-13T02:59:51.519Z,7.67
2023-03-13T03:02:19.586Z,6.60
2023-03-13T03:04:47.685Z,7.60
2023-03-13T03:07:15.701Z,7.33
2023-03-13T03:09:43.699Z,7.33
2023-03-13T03:12:18.366Z,6.67
2023-03-13T03:14:48.098Z,7.43
2023-03-13T03:17:17.031Z,7.27
2023-03-13T03:19:44.924Z,7.30
2023-03-13T03:22:13.123Z,7.03
2023-03-13T03:24:41.124Z,6.83
2023-03-13T03:27:09.140Z,6.80
2023-03-13T03:29:43.616Z,6.90
2023-03-13T03:32:13.058Z,7.30
2023-03-13T03:34:41.170Z,7.00
2023-03-13T03:37:09.378Z,6.77
2023-03-13T03:39:37.648Z,6.53
2023-03-13T03:42:07.044Z,7.07
2023-03-13T03:44:35.110Z,7.30
2023-03-13T03:47:04.821Z,7.03
2023-03-13T03:49:38.657Z,7.30
2023-03-13T03:52:07.795Z,6.33
2023-03-13T03:54:39.606Z,6.80
2023-03-13T03:57:07.947Z,7.20
2023-03-13T03:59:37.635Z,6.70
2023-03-13T04:02:08.727Z,6.20
2023-03-13T04:04:38.652Z,6.37
2023-03-13T04:07:11.276Z,6.20
2023-03-13T04:09:40.780Z,6.37
2023-03-13T04:12:11.336Z,6.73
2023-03-13T04:14:44.012Z,5.90
2023-03-13T04:17:14.880Z,6.20
2023-03-13T04:19:46.241Z,6.50
2023-03-13T04:22:14.477Z,6.80
2023-03-13T04:24:48.524Z,5.93
2023-03-13T04:27:16.674Z,6.30
2023-03-13T04:29:46.628Z,5.80
2023-03-13T04:32:41.407Z,7.03
2023-03-13T04:35:34.165Z,6.00
2023-03-13T04:38:21.463Z,6.03
2023-03-13T04:41:13.409Z,6.40
2023-03-13T04:43:48.362Z,6.30
2023-03-13T04:46:34.770Z,6.40
2023-03-13T04:49:24.502Z,6.30
2023-03-13T04:52:19.490Z,5.97
2023-03-13T04:55:09.847Z,6.03
2023-03-13T04:57:46.884Z,5.43
2023-03-13T05:00:43.823Z,5.33
2023-03-13T05:03:40.737Z,6.17
2023-03-13T05:06:31.971Z,5.30
2023-03-13T05:09:20.047Z,5.93
2023-03-13T05:12:03.773Z,6.23
2023-03-13T05:14:54.690Z,5.90
2023-03-13T05:17:33.997Z,5.97
2023-03-13T05:20:19.533Z,6.10
2023-03-13T05:23:07.811Z,5.20
2023-03-13T05:25:49.017Z,5.53
2023-03-13T05:28:37.269Z,5.87
2023-03-13T05:31:14.035Z,5.67
2023-03-13T05:34:02.192Z,4.93
2023-03-13T05:36:56.059Z,5.77
2023-03-13T05:39:42.864Z,5.53
2023-03-13T05:42:35.165Z,5.60
2023-03-13T05:45:32.166Z,5.37
2023-03-13T05:48:23.507Z,5.43
2023-03-13T05:51:23.933Z,4.73
2023-03-13T05:54:15.426Z,5.10
2023-03-13T05:57:22.084Z,5.03
2023-03-13T06:00:06.907Z,4.70
2023-03-13T06:02:54.995Z,5.00
2023-03-13T06:05:30.296Z,4.60
2023-03-13T06:07:59.933Z,4.27
2023-03-13T06:10:28.071Z,4.53
2023-03-13T06:12:56.978Z,4.40
2023-03-13T06:15:31.017Z,4.60
2023-03-13T06:18:13.604Z,3.50
2023-03-13T06:20:42.636Z,3.90
2023-03-13T06:23:10.609Z,4.00
2023-03-13T06:25:38.609Z,3.70
2023-03-13T06:28:06.516Z,3.20
2023-03-13T06:30:35.917Z,3.37
2023-03-13T06:33:03.999Z,3.67
2023-03-13T06:35:32.136Z,3.50
2023-03-13T06:38:00.239Z,3.10
2023-03-13T06:40:28.239Z,3.37
2023-03-13T06:42:56.162Z,3.30
2023-03-13T06:45:24.083Z,3.00
2023-03-13T06:47:53.416Z,2.80
2023-03-13T06:50:21.423Z,2.43
2023-03-13T06:52:49.487Z,2.90
2023-03-13T06:55:17.563Z,2.67
2023-03-13T06:57:45.556Z,2.50
2023-03-13T07:00:14.408Z,2.40
2023-03-13T07:02:42.380Z,2.37
2023-03-13T07:05:11.777Z,2.87
2023-03-13T07:07:39.731Z,2.33
2023-03-13T07:10:08.899Z,2.90
2023-03-13T07:12:37.135Z,2.83
2023-03-13T07:15:05.910Z,3.17
2023-03-13T07:17:33.913Z,2.80
2023-03-13T07:20:01.857Z,2.87
2023-03-13T07:22:31.232Z,3.13
2023-03-13T07:24:59.262Z,3.07
2023-03-13T07:27:27.276Z,3.10
2023-03-13T07:29:55.237Z,3.03
2023-03-13T07:32:23.263Z,2.93
2023-03-13T07:34:51.263Z,2.40
2023-03-13T07:37:19.324Z,2.50
2023-03-13T07:39:48.552Z,2.83
2023-03-13T07:42:16.529Z,2.57
2023-03-13T07:44:44.446Z,2.90
2023-03-13T07:47:12.388Z,2.60
2023-03-13T07:49:43.826Z,2.63
2023-03-13T07:52:11.762Z,3.10
2023-03-13T07:54:39.655Z,3.10
2023-03-13T07:57:09.196Z,2.77
2023-03-13T07:59:37.156Z,3.23
2023-03-13T08:02:05.622Z,3.10
2023-03-13T08:04:33.571Z,2.67
2023-03-13T08:07:01.462Z,2.57
2023-03-13T08:09:29.438Z,2.90
2023-03-13T08:11:57.301Z,3.57
2023-03-13T08:14:26.810Z,3.40
2023-03-13T08:16:55.038Z,2.93
2023-03-13T08:19:23.012Z,3.40
2023-03-13T08:21:50.926Z,3.37
2023-03-13T08:24:18.801Z,3.60
2023-03-13T08:26:46.772Z,3.40
2023-03-13T08:29:15.758Z,3.20
2023-03-13T08:31:47.583Z,3.50
2023-03-13T08:34:16.631Z,3.30
2023-03-13T08:36:44.895Z,4.03
2023-03-13T08:39:14.307Z,3.83
2023-03-13T08:41:42.346Z,3.80
2023-03-13T08:44:12.894Z,4.07
2023-03-13T08:46:41.226Z,3.93
2023-03-13T08:49:11.279Z,3.60
2023-03-13T08:51:40.807Z,4.30
2023-03-13T08:54:08.878Z,4.20
2023-03-13T08:56:37.425Z,4.70
2023-03-13T08:59:07.807Z,5.03
2023-03-13T09:01:37.368Z,4.70
2023-03-13T09:04:06.629Z,4.97
2023-03-13T09:06:37.512Z,4.90
2023-03-13T09:09:06.955Z,5.27
2023-03-13T09:11:36.820Z,5.80
2023-03-13T09:14:04.845Z,6.90
2023-03-13T09:16:34.880Z,6.77
2023-03-13T09:19:03.127Z,7.93
2023-03-13T09:21:32.468Z,8.17
2023-03-13T09:24:03.161Z,8.90
2023-03-13T09:26:31.765Z,8.50
2023-03-13T09:29:00.107Z,8.13
2023-03-13T09:31:30.424Z,8.13
2023-03-13T09:33:58.905Z,7.53
2023-03-13T09:36:27.726Z,7.90
2023-03-13T09:38:57.516Z,7.97
2023-03-13T09:41:33.423Z,7.07
2023-03-13T09:44:06.431Z,7.07
2023-03-13T09:46:39.948Z,6.67
2023-03-13T09:49:17.276Z,6.20
2023-03-13T09:51:49.908Z,6.20
2023-03-13T09:54:25.749Z,6.33
2023-03-13T09:56:58.542Z,6.30
2023-03-13T09:59:34.972Z,7.03
2023-03-13T10:02:08.531Z,6.67
2023-03-13T10:04:43.834Z,6.20
2023-03-13T10:07:13.517Z,6.70
2023-03-13T10:09:42.332Z,6.03
2023-03-13T10:12:18.198Z,6.53
2023-03-13T10:14:54.853Z,6.40
2023-03-13T10:17:33.003Z,6.27
2023-03-13T10:20:09.033Z,6.70
2023-03-13T10:22:38.394Z,6.37
2023-03-13T10:25:13.062Z,6.63
2023-03-13T10:27:46.427Z,6.47
2023-03-13T10:30:24.733Z,6.80
2023-03-13T10:33:01.571Z,6.50
2023-03-13T10:35:36.182Z,6.50
2023-03-13T10:38:07.425Z,7.47
2023-03-13T10:40:35.771Z,6.80
2023-03-13T10:43:07.703Z,6.40
2023-03-13T10:45:38.038Z,6.37
2023-03-13T10:48:14.053Z,6.20
2023-03-13T10:50:44.744Z,6.23
2023-03-13T10:53:27.136Z,6.30
2023-03-13T10:55:56.477Z,5.57
2023-03-13T10:58:31.429Z,5.33
2023-03-13T11:01:16.316Z,5.50
2023-03-13T11:03:45.288Z,5.60
2023-03-13T11:06:26.799Z,5.63
2023-03-13T11:09:04.860Z,5.00
2023-03-13T11:11:44.205Z,4.90
2023-03-13T11:14:18.297Z,4.50
2023-03-13T11:16:51.089Z,4.80
2023-03-13T11:19:49.105Z,4.60
2023-03-13T11:22:38.412Z,5.00
2023-03-13T11:25:35.917Z,4.60
2023-03-13T11:28:26.754Z,4.40
2023-03-13T11:31:10.990Z,3.87
2023-03-13T11:33:53.342Z,3.90
2023-03-13T11:36:27.669Z,4.20
2023-03-13T11:39:02.299Z,4.10
2023-03-13T11:41:52.472Z,4.50
2023-03-13T11:44:47.121Z,3.83
2023-03-13T11:47:33.883Z,4.00
2023-03-13T11:50:27.054Z,3.90
2023-03-13T11:53:29.580Z,3.50
2023-03-13T11:56:06.695Z,3.20
2023-03-13T11:58:58.615Z,3.07
2023-03-13T12:01:29.558Z,2.77
2023-03-13T12:04:05.096Z,3.07
2023-03-13T12:06:35.949Z,2.87
2023-03-13T12:09:12.023Z,2.80
2023-03-13T12:11:45.884Z,2.93
2023-03-13T12:14:19.361Z,2.20
2023-03-13T12:16:50.828Z,2.60
2023-03-13T12:19:28.197Z,2.30
2023-03-13T12:21:59.364Z,2.67
2023-03-13T12:24:33.846Z,2.63
2023-03-13T12:27:12.387Z,2.73
2023-03-13T12:29:48.877Z,2.50
2023-03-13T12:32:25.690Z,2.60
2023-03-13T12:35:01.449Z,2.40
2023-03-13T12:37:37.861Z,2.50
2023-03-13T12:40:17.051Z,2.20
2023-03-13T12:42:52.454Z,2.40
2023-03-13T12:45:24.298Z,2.73
2023-03-13T12:48:16.076Z,2.57
2023-03-13T12:50:57.803Z,2.80
2023-03-13T12:53:54.690Z,2.20
2023-03-13T12:56:45.556Z,2.60
2023-03-13T12:59:19.018Z,2.40
2023-03-13T13:01:49.207Z,2.47
2023-03-13T13:04:20.799Z,3.07
2023-03-13T13:06:56.738Z,2.60
2023-03-13T13:09:26.821Z,2.50
2023-03-13T13:11:56.875Z,2.20
2023-03-13T13:15:12.658Z,2.27
2023-03-13T13:18:01.363Z,2.37
2023-03-13T13:20:40.038Z,2.40
2023-03-13T13:23:26.173Z,2.00
2023-03-13T13:25:55.875Z,2.43
2023-03-13T13:28:36.574Z,2.27
2023-03-13T13:31:43.430Z,1.80
2023-03-13T13:35:01.938Z,2.03
2023-03-13T13:37:30.136Z,1.90
2023-03-13T13:40:20.811Z,1.70
2023-03-13T13:42:51.334Z,1.80
2023-03-13T13:45:25.837Z,1.50
2023-03-13T13:48:32.586Z,1.70
2023-03-13T13:51:37.062Z,1.70
2023-03-13T13:54:26.258Z,1.70
2023-03-13T13:56:59.329Z,1.90
2023-03-13T13:59:45.735Z,1.90
2023-03-13T14:02:25.890Z,1.97
2023-03-13T14:04:58.221Z,1.80
2023-03-13T14:07:31.712Z,2.40
2023-03-13T14:10:04.262Z,1.90
2023-03-13T14:12:35.026Z,1.47
2023-03-13T14:15:13.627Z,1.57
2023-03-13T14:17:44.064Z,1.87
2023-03-13T14:20:34.301Z,1.80
2023-03-13T14:23:06.136Z,1.90
2023-03-13T14:25:46.251Z,1.60
2023-03-13T14:28:19.339Z,2.10
2023-03-13T14:30:48.837Z,1.70
2023-03-13T14:33:17.148Z,1.70
2023-03-13T14:35:45.366Z,1.50
2023-03-13T14:38:20.640Z,1.80
2023-03-13T14:40:49.283Z,1.70
2023-03-13T14:43:24.407Z,1.80
2023-03-13T14:45:53.240Z,1.80
2023-03-13T14:48:24.521Z,1.63
2023-03-13T14:51:12.567Z,2.13
2023-03-13T14:53:55.149Z,1.70
2023-03-13T14:56:32.603Z,1.70
2023-03-13T14:59:17.814Z,2.10
2023-03-13T15:01:46.448Z,1.63
2023-03-13T15:04:14.450Z,1.90
2023-03-13T15:06:42.610Z,1.90
2023-03-13T15:09:21.279Z,1.80
2023-03-13T15:11:59.012Z,1.67
2023-03-13T15:14:36.202Z,1.70
2023-03-13T15:17:04.875Z,1.60
2023-03-13T15:19:33.064Z,2.00
2023-03-13T15:22:01.126Z,1.80
2023-03-13T15:24:30.526Z,1.87
2023-03-13T15:26:58.422Z,1.80
2023-03-13T15:29:26.384Z,1.80
2023-03-13T15:31:54.383Z,1.97
2023-03-13T15:34:25.246Z,1.80
2023-03-13T15:36:53.159Z,1.90
2023-03-13T15:39:22.078Z,1.87
2023-03-13T15:41:51.857Z,1.90
2023-03-13T15:44:20.962Z,2.10
2023-03-13T15:46:49.008Z,2.00
2023-03-13T15:49:16.894Z,1.80
2023-03-13T15:51:44.814Z,1.90
2023-03-13T15:54:12.676Z,1.60
2023-03-13T15:56:41.311Z,1.57
2023-03-13T15:59:14.865Z,1.67
2023-03-13T16:01:43.733Z,1.90
2023-03-13T16:04:12.159Z,1.60
2023-03-13T16:06:40.221Z,1.53
2023-03-13T16:09:08.381Z,1.73
2023-03-13T16:11:36.313Z,1.67
2023-03-13T16:14:04.237Z,1.70
2023-03-13T16:16:37.574Z,1.70
2023-03-13T16:19:07.358Z,1.70
2023-03-13T16:21:36.097Z,1.73
2023-03-13T16:24:04.313Z,1.60
2023-03-13T16:26:33.000Z,1.30
2023-03-13T16:29:01.022Z,1.73
2023-03-13T16:31:31.176Z,1.67
2023-03-13T16:34:02.235Z,1.20
2023-03-13T16:36:33.535Z,1.93
2023-03-13T16:39:02.465Z,1.80
2023-03-13T16:41:30.757Z,1.50
2023-03-13T16:43:58.810Z,1.43
2023-03-13T16:46:32.737Z,1.50
2023-03-13T16:49:02.370Z,1.93
2023-03-13T16:51:31.086Z,1.57
2023-03-13T16:54:00.698Z,1.53
2023-03-13T16:56:33.643Z,1.57
2023-03-13T16:59:02.991Z,1.23
2023-03-13T17:01:31.045Z,1.40
2023-03-13T17:03:59.804Z,1.60
2023-03-13T17:06:32.617Z,1.67
2023-03-13T17:09:02.009Z,1.60
2023-03-13T17:11:30.580Z,1.60
2023-03-13T17:13:59.376Z,1.83
2023-03-13T17:16:32.108Z,1.73
2023-03-13T17:19:00.980Z,1.87
2023-03-13T17:21:32.235Z,1.80
2023-03-13T17:24:01.188Z,2.00
2023-03-13T17:26:30.894Z,1.50
2023-03-13T17:29:00.329Z,1.60
2023-03-13T17:31:36.976Z,2.07
2023-03-13T17:34:05.446Z,3.70
2023-03-13T17:36:35.428Z,1.80
2023-03-13T17:39:05.707Z,1.60
2023-03-13T17:41:36.052Z,1.63
2023-03-13T17:44:04.651Z,1.83
2023-03-13T17:46:35.921Z,1.90
2023-03-13T17:49:04.487Z,1.87
2023-03-13T17:51:35.665Z,2.00
2023-03-13T17:54:04.271Z,2.00
2023-03-13T17:56:38.605Z,2.20
2023-03-13T17:59:11.216Z,1.90
2023-03-13T18:01:39.722Z,2.00
2023-03-13T18:04:07.898Z,1.73
2023-03-13T18:06:42.758Z,2.00
2023-03-13T18:09:15.432Z,1.77
2023-03-13T18:11:43.581Z,1.80
2023-03-13T18:14:11.946Z,1.93
2023-03-13T18:16:43.183Z,1.83
2023-03-13T18:19:15.985Z,1.67
2023-03-13T18:21:46.462Z,1.70
2023-03-13T18:24:17.011Z,1.67
2023-03-13T18:26:46.163Z,1.90
2023-03-13T18:29:16.025Z,1.50
2023-03-13T18:31:44.186Z,1.70
2023-03-13T18:34:13.087Z,1.60
2023-03-13T18:36:42.175Z,1.70
2023-03-13T18:39:17.262Z,2.83
2023-03-13T18:41:45.671Z,3.00
2023-03-13T18:44:15.899Z,2.33
2023-03-13T18:46:44.546Z,3.00
2023-03-13T18:49:17.087Z,3.53
2023-03-13T18:51:46.156Z,15.00
2023-03-13T18:54:15.540Z,6.00
2023-03-13T18:56:45.306Z,3.07
2023-03-13T18:59:14.550Z,3.10
2023-03-13T19:01:42.854Z,2.63
2023-03-13T19:04:10.797Z,2.30
2023-03-13T19:06:38.793Z,1.60
2023-03-13T19:09:41.212Z,2.13
2023-03-13T19:12:03.821Z,1.63
2023-03-13T19:14:31.709Z,1.90
2023-03-13T19:16:59.726Z,1.80
2023-03-13T19:19:27.690Z,1.90
2023-03-13T19:21:56.680Z,1.80
2023-03-13T19:24:26.618Z,1.93
2023-03-13T19:26:58.818Z,2.17
2023-03-13T19:29:29.481Z,2.17
2023-03-13T19:31:59.160Z,2.40
2023-03-13T19:34:27.147Z,1.70
2023-03-13T19:36:54.999Z,1.87
2023-03-13T19:39:25.096Z,1.70
2023-03-13T19:41:54.610Z,2.00
2023-03-13T19:44:24.098Z,1.93
2023-03-13T19:46:56.090Z,1.97
2023-03-13T19:49:24.148Z,2.90
2023-03-13T19:51:52.036Z,1.97
2023-03-13T19:54:20.049Z,2.20
2023-03-13T19:56:49.463Z,2.30
2023-03-13T19:59:18.517Z,2.30
2023-03-13T20:01:46.634Z,2.40
2023-03-13T20:04:16.538Z,5.77
2023-03-13T20:06:45.316Z,9.27
2023-03-13T20:09:16.459Z,3.80
2023-03-13T20:11:45.410Z,12.53
2023-03-13T20:14:13.476Z,15.13
2023-03-13T20:16:42.664Z,9.97
2023-03-13T20:19:10.560Z,49.93
2023-03-13T20:21:42.831Z,15.17
2023-03-13T20:24:10.994Z,14.93
2023-03-13T20:26:39.314Z,8.23
2023-03-13T20:29:07.291Z,4.67
2023-03-13T20:31:35.268Z,2.30
2023-03-13T20:34:03.340Z,3.03
2023-03-13T20:36:31.372Z,2.13
2023-03-13T20:39:00.899Z,2.23
2023-03-13T20:41:31.109Z,2.40
2023-03-13T20:43:59.320Z,2.17
2023-03-13T20:46:27.376Z,2.47
2023-03-13T20:48:57.870Z,2.53
2023-03-13T20:51:27.692Z,2.00
2023-03-13T20:53:55.749Z,2.10
2023-03-13T20:56:25.099Z,2.27
2023-03-13T20:58:53.111Z,2.07
2023-03-13T21:01:22.425Z,2.27
2023-03-13T21:03:50.473Z,2.40
2023-03-13T21:06:19.904Z,2.30
2023-03-13T21:08:48.598Z,2.03
2023-03-13T21:11:18.539Z,2.30
2023-03-13T21:13:48.491Z,2.33
2023-03-13T21:16:18.365Z,2.67
2023-03-13T21:18:46.868Z,2.40
2023-03-13T21:21:17.285Z,2.10
2023-03-13T21:23:46.233Z,2.13
2023-03-13T21:26:15.022Z,2.13
2023-03-13T21:28:43.842Z,2.40
2023-03-13T21:31:15.842Z,2.10
2023-03-13T21:33:44.877Z,2.10
2023-03-13T21:36:14.789Z,2.43
2023-03-13T21:38:43.233Z,2.43
2023-03-13T21:41:12.805Z,2.33
2023-03-13T21:43:41.752Z,2.20
2023-03-13T21:46:10.209Z,2.40
2023-03-13T21:48:41.240Z,2.47
2023-03-13T21:51:10.370Z,2.53
2023-03-13T21:53:39.103Z,2.10
2023-03-13T21:56:08.191Z,2.50
2023-03-13T21:58:36.100Z,2.40
2023-03-13T22:01:04.203Z,2.20
2023-03-13T22:03:32.387Z,2.13
2023-03-13T22:06:01.791Z,2.13
2023-03-13T22:08:30.969Z,2.10
2023-03-13T22:10:59.868Z,2.13
2023-03-13T22:13:27.941Z,2.27
2023-03-13T22:15:55.805Z,2.10
2023-03-13T22:18:23.841Z,2.10
2023-03-13T22:20:51.812Z,2.00
2023-03-13T22:23:21.099Z,2.10
2023-03-13T22:25:49.050Z,2.33
2023-03-13T22:28:17.017Z,1.80
2023-03-13T22:30:45.677Z,2.20
2023-03-13T22:33:13.920Z,2.20
2023-03-13T22:35:42.159Z,2.30
2023-03-13T22:38:10.177Z,2.37
2023-03-13T22:40:39.465Z,2.20
2023-03-13T22:43:07.455Z,2.10
2023-03-13T22:45:36.298Z,2.30
2023-03-13T22:48:06.386Z,2.10
2023-03-13T22:50:34.615Z,2.00
2023-03-13T22:53:02.856Z,2.23
2023-03-13T22:55:32.633Z,2.20
2023-03-13T22:58:02.099Z,2.03
2023-03-13T23:00:30.097Z,2.43
2023-03-13T23:02:58.077Z,2.63
2023-03-13T23:05:26.090Z,2.50
2023-03-13T23:07:53.947Z,2.63
2023-03-13T23:10:22.140Z,2.73
2023-03-13T23:12:50.064Z,2.30
2023-03-13T23:15:19.502Z,2.43
2023-03-13T23:17:47.479Z,2.60
2023-03-13T23:20:16.122Z,2.53
2023-03-13T23:22:45.808Z,2.67
2023-03-13T23:25:14.778Z,2.50
2023-03-13T23:27:42.915Z,2.73
2023-03-13T23:30:13.859Z,2.70
2023-03-13T23:32:45.731Z,2.60
2023-03-13T23:35:14.641Z,2.90
2023-03-13T23:37:42.523Z,2.60
2023-03-13T23:40:12.000Z,2.90
2023-03-13T23:42:39.977Z,2.77
2023-03-13T23:45:09.154Z,2.77
2023-03-13T23:47:37.339Z,3.10
2023-03-13T23:50:07.436Z,3.47
2023-03-13T23:52:35.823Z,3.10
2023-03-13T23:55:04.416Z,2.83
2023-03-13T23:57:32.712Z,3.10
